Terminal Aerodrome Forecast
Issued by NWS

Home | Current Version | Previous Version | Text Only | Print | Product List | Glossary On
Versions: 1 2 3 4 5 6 7 8 9 10 11 12 13 14 15 16 17 18 19 20 21 22 23
562
FTUS41 KPHI 281021 AAB
TAFPNE
TAF AMD
KPNE 281021Z 2810/2906 06008KT 3/4SM BR OVC001
     FM281400 06006KT 2SM BR VCSH OVC004
     FM281900 06006KT 5SM -RA BR OVC006
     FM290000 03006KT 2SM BR VCSH OVC007
     FM290500 36006KT P6SM BKN025=

USA.gov is the U.S. government's official web portal to all federal, state and local government web resources and services.